createdAt,value
2018-09-24T13:19:32.655Z,22.28
2018-09-24T13:20:32.530Z,22.27
2018-09-24T13:24:22.309Z,22.52
2018-09-24T13:25:22.500Z,22.53
2018-09-24T13:26:22.482Z,22.32
2018-09-24T13:27:22.255Z,22.35
2018-09-24T13:28:22.256Z,22.35
2018-09-24T13:29:22.249Z,22.34
2018-09-24T13:30:22.222Z,22.31
2018-09-24T13:31:22.242Z,22.31
2018-09-24T13:32:22.251Z,22.22
2018-09-24T13:33:22.373Z,22.19
2018-09-24T13:34:22.358Z,22.23
2018-09-24T13:35:22.351Z,22.28
2018-09-24T13:36:22.293Z,22.28
2018-09-24T13:37:22.344Z,22.34
2018-09-24T13:38:22.169Z,22.34
2018-09-24T13:39:22.295Z,22.32
2018-09-24T13:40:22.271Z,22.29
2018-09-24T13:41:22.281Z,22.31
2018-09-24T13:42:22.117Z,22.35
2018-09-24T13:43:22.316Z,22.34
2018-09-24T13:44:22.246Z,22.41
2018-09-24T13:45:22.293Z,22.38
2018-09-24T13:46:22.237Z,22.41
2018-09-24T13:47:22.214Z,22.39
2018-09-24T13:48:22.199Z,22.43
2018-09-24T13:49:22.130Z,22.43
2018-09-24T13:50:22.178Z,22.47
2018-09-24T13:51:22.165Z,22.39
2018-09-24T13:52:21.978Z,22.37
2018-09-24T13:53:22.147Z,22.39
2018-09-24T13:54:22.125Z,22.41
2018-09-24T13:55:22.164Z,22.50
2018-09-24T13:56:22.123Z,22.39
2018-09-24T13:57:22.086Z,22.52
2018-09-24T13:58:22.118Z,22.50
2018-09-24T13:59:22.801Z,22.56
2018-09-24T14:00:21.903Z,22.54
2018-09-24T14:01:22.078Z,22.52
2018-09-24T14:02:22.038Z,22.59
2018-09-24T14:03:22.018Z,22.53
2018-09-24T14:04:22.036Z,22.49
2018-09-24T14:05:21.861Z,22.54
2018-09-24T14:06:21.992Z,22.44
2018-09-24T14:07:22.031Z,22.49
2018-09-24T14:08:22.152Z,22.53
2018-09-24T14:09:21.964Z,22.52
2018-09-24T14:10:21.804Z,22.52
2018-09-24T14:11:21.944Z,22.52
2018-09-24T14:12:21.771Z,22.52
2018-09-24T14:13:22.020Z,22.57
2018-09-24T14:14:21.911Z,22.57
2018-09-24T14:15:21.903Z,22.62
2018-09-24T14:16:21.746Z,22.87
2018-09-24T14:17:21.892Z,23.05
2018-09-24T14:18:21.862Z,23.14
2018-09-24T14:19:21.899Z,23.26
2018-09-24T14:20:21.855Z,23.49
2018-09-24T14:21:21.843Z,23.50
2018-09-24T14:22:21.852Z,23.58
2018-09-24T14:23:21.819Z,23.72
2018-09-24T14:24:21.826Z,23.72
2018-09-24T14:25:21.839Z,23.85
2018-09-24T14:26:21.807Z,23.98
2018-09-24T14:27:21.770Z,23.95
2018-09-24T14:28:21.599Z,23.95
2018-09-24T14:29:21.750Z,24.01
2018-09-24T14:30:21.746Z,23.89
2018-09-24T14:31:21.602Z,24.04
2018-09-24T14:32:21.742Z,24.05
2018-09-24T14:33:21.570Z,23.97
2018-09-24T14:34:21.721Z,23.92
2018-09-24T14:35:21.679Z,23.95
2018-09-24T14:36:21.684Z,23.89
2018-09-24T14:37:21.769Z,23.89
2018-09-24T14:38:21.655Z,23.82
2018-09-24T14:39:21.637Z,23.83
2018-09-24T14:40:21.642Z,23.83
2018-09-24T14:41:21.484Z,23.76
2018-09-24T14:42:21.628Z,23.77
2018-09-24T14:43:21.649Z,24.50
2018-09-24T14:44:21.587Z,25.49
2018-09-24T14:45:21.587Z,25.30
2018-09-24T14:46:21.589Z,24.90
2018-09-24T14:47:21.558Z,24.76
2018-09-24T14:48:21.542Z,24.54
2018-09-24T14:49:21.552Z,24.42
2018-09-24T14:50:21.498Z,24.31
2018-09-24T14:51:21.471Z,24.45
2018-09-24T14:52:21.512Z,24.44
2018-09-24T14:53:21.483Z,24.39
2018-09-24T14:54:21.462Z,24.31
2018-09-24T14:55:21.536Z,24.29
2018-09-24T14:56:21.454Z,24.26
2018-09-24T14:57:21.425Z,24.26
2018-09-24T14:58:21.440Z,24.16
2018-09-24T14:59:21.436Z,24.22
2018-09-24T15:00:21.429Z,24.05
2018-09-24T15:01:21.587Z,23.95
2018-09-24T15:02:21.416Z,23.97
2018-09-24T15:03:21.452Z,23.92
2018-09-24T15:04:21.372Z,23.94
2018-09-24T15:05:21.343Z,23.92
2018-09-24T15:06:21.346Z,23.85
2018-09-24T15:07:21.351Z,23.86
2018-09-24T15:08:21.320Z,23.77
2018-09-24T15:09:21.295Z,23.83
2018-09-24T15:10:21.276Z,23.75
2018-09-24T15:11:21.281Z,23.75
2018-09-24T15:12:21.292Z,23.71
2018-09-24T15:13:21.280Z,23.72
2018-09-24T15:14:21.245Z,23.70
2018-09-24T15:15:21.240Z,23.67
2018-09-24T15:16:21.209Z,23.72
2018-09-24T15:17:21.046Z,23.70
2018-09-24T15:18:21.118Z,23.70
2018-09-24T15:19:21.049Z,23.70
2018-09-24T15:20:21.186Z,23.72
2018-09-24T15:21:21.050Z,23.71
2018-09-24T15:22:21.020Z,23.64
2018-09-24T15:23:21.014Z,23.72
2018-09-24T15:24:21.171Z,23.65
2018-09-24T15:25:21.151Z,23.61
2018-09-24T15:26:20.991Z,23.57
2018-09-24T15:27:21.127Z,23.62
2018-09-24T15:28:20.956Z,23.67
2018-09-24T15:29:21.090Z,23.60
2018-09-24T15:30:21.079Z,23.64
2018-09-24T15:31:21.060Z,23.62
2018-09-24T15:32:20.910Z,23.64
2018-09-24T15:33:21.066Z,23.70
2018-09-24T15:34:21.050Z,23.60
2018-09-24T15:35:20.907Z,23.64
2018-09-24T15:36:21.000Z,23.61
2018-09-24T15:37:21.022Z,23.61
2018-09-24T15:38:21.013Z,23.72
2018-09-24T15:39:20.987Z,23.61
2018-09-24T15:40:20.967Z,23.49
2018-09-24T15:41:21.022Z,23.60
2018-09-24T15:42:20.934Z,23.60
2018-09-24T15:43:20.919Z,23.60
2018-09-24T15:44:20.943Z,23.47
